createdAt,value
2018-12-31T00:01:58.840Z,7.33
2018-12-31T00:04:27.425Z,14.03
2018-12-31T00:06:55.886Z,8.13
2018-12-31T00:09:24.649Z,9.50
2018-12-31T00:11:53.153Z,8.90
2018-12-31T00:14:21.797Z,7.90
2018-12-31T00:16:50.423Z,12.97
2018-12-31T00:19:19.106Z,10.67
2018-12-31T00:21:47.635Z,8.97
2018-12-31T00:24:16.268Z,8.73
2018-12-31T00:26:44.852Z,9.83
2018-12-31T00:29:13.425Z,13.30
2018-12-31T00:31:41.925Z,5.67
2018-12-31T00:34:11.871Z,9.77
2018-12-31T00:36:41.364Z,9.83
2018-12-31T00:39:10.712Z,10.37
2018-12-31T00:41:39.297Z,13.17
2018-12-31T00:44:08.045Z,8.87
2018-12-31T00:46:37.617Z,7.77
2018-12-31T00:49:06.451Z,10.87
2018-12-31T00:51:36.479Z,12.10
2018-12-31T00:54:05.082Z,17.13
2018-12-31T00:56:33.582Z,9.90
2018-12-31T00:59:02.224Z,10.90
2018-12-31T01:01:30.790Z,7.73
2018-12-31T01:03:59.427Z,8.97
2018-12-31T01:06:27.913Z,9.20
2018-12-31T01:08:56.498Z,5.63
2018-12-31T01:11:24.941Z,5.40
2018-12-31T01:13:53.430Z,6.90
2018-12-31T01:16:21.939Z,7.43
2018-12-31T01:18:50.396Z,6.23
2018-12-31T01:21:18.859Z,6.70
2018-12-31T01:23:47.495Z,8.47
2018-12-31T01:26:16.148Z,6.67
2018-12-31T01:28:44.711Z,8.13
2018-12-31T01:31:13.315Z,4.30
2018-12-31T01:33:41.838Z,3.97
2018-12-31T01:36:10.276Z,7.17
2018-12-31T01:38:39.109Z,7.00
2018-12-31T01:41:07.545Z,5.43
2018-12-31T01:43:36.069Z,4.63
2018-12-31T01:46:04.804Z,5.63
2018-12-31T01:48:33.346Z,6.50
2018-12-31T01:51:01.863Z,3.53
2018-12-31T01:53:30.374Z,3.17
2018-12-31T01:55:58.943Z,6.13
2018-12-31T01:58:27.539Z,4.53
2018-12-31T02:00:56.143Z,5.43
2018-12-31T02:03:24.725Z,5.27
2018-12-31T02:05:53.294Z,5.00
2018-12-31T02:08:21.865Z,8.27
2018-12-31T02:10:50.395Z,4.07
2018-12-31T02:13:18.884Z,4.27
2018-12-31T02:15:47.402Z,4.80
2018-12-31T02:18:15.896Z,4.47
2018-12-31T02:20:44.458Z,5.63
2018-12-31T02:23:13.145Z,5.93
2018-12-31T02:25:41.659Z,6.27
2018-12-31T02:28:10.324Z,4.43
2018-12-31T02:30:38.888Z,5.87
2018-12-31T02:33:07.452Z,3.97
2018-12-31T02:35:36.009Z,7.30
2018-12-31T02:38:04.569Z,4.37
2018-12-31T02:40:33.002Z,5.00
2018-12-31T02:43:01.470Z,5.33
2018-12-31T02:45:30.079Z,4.73
2018-12-31T02:47:58.728Z,4.00
2018-12-31T02:50:27.306Z,7.00
2018-12-31T02:52:55.886Z,3.33
2018-12-31T02:55:24.474Z,7.83
2018-12-31T02:57:52.930Z,6.50
2018-12-31T03:00:21.950Z,5.77
2018-12-31T03:02:50.530Z,10.43
2018-12-31T03:05:19.130Z,6.30
2018-12-31T03:07:47.765Z,5.37
2018-12-31T03:10:16.380Z,8.57
2018-12-31T03:12:44.847Z,6.30
2018-12-31T03:15:13.519Z,4.90
2018-12-31T03:17:42.060Z,6.27
2018-12-31T03:20:10.538Z,4.40
2018-12-31T03:22:38.983Z,7.60
2018-12-31T03:25:07.553Z,5.00
2018-12-31T03:27:36.137Z,5.23
2018-12-31T03:30:05.533Z,3.73
2018-12-31T03:32:34.146Z,5.97
2018-12-31T03:35:02.714Z,7.30
2018-12-31T03:37:31.247Z,6.20
2018-12-31T03:39:59.882Z,5.20
2018-12-31T03:42:28.392Z,6.73
2018-12-31T03:44:57.025Z,6.43
2018-12-31T03:47:25.451Z,6.23
2018-12-31T03:49:55.078Z,8.37
2018-12-31T03:52:23.585Z,7.07
2018-12-31T03:54:52.258Z,7.27
2018-12-31T03:57:20.763Z,8.80
2018-12-31T03:59:49.369Z,5.10
2018-12-31T04:02:17.938Z,6.63
2018-12-31T04:04:46.411Z,10.07
2018-12-31T04:07:14.945Z,8.90
2018-12-31T04:09:43.444Z,15.13
2018-12-31T04:12:11.922Z,14.80
2018-12-31T04:14:40.410Z,13.63
2018-12-31T04:17:09.073Z,13.30
2018-12-31T04:19:37.474Z,12.60
2018-12-31T04:22:05.987Z,14.17
2018-12-31T04:24:34.514Z,15.63
2018-12-31T04:27:02.948Z,11.30
2018-12-31T04:29:31.430Z,13.57
2018-12-31T04:32:00.079Z,11.97
2018-12-31T04:34:28.510Z,11.23
2018-12-31T04:36:57.025Z,12.37
2018-12-31T04:39:25.783Z,15.50
2018-12-31T04:41:54.338Z,10.20
2018-12-31T04:44:22.962Z,12.03
2018-12-31T04:46:51.444Z,14.43
2018-12-31T04:49:20.077Z,9.70
2018-12-31T04:51:48.537Z,12.87
2018-12-31T04:54:17.016Z,13.80
2018-12-31T04:56:45.554Z,11.43
2018-12-31T04:59:14.120Z,10.77
2018-12-31T05:01:42.646Z,10.83
2018-12-31T05:04:11.166Z,12.27
2018-12-31T05:06:39.996Z,15.63
2018-12-31T05:09:08.450Z,15.73
2018-12-31T05:11:36.931Z,14.30
2018-12-31T05:14:05.551Z,17.23
2018-12-31T05:16:33.998Z,21.33
2018-12-31T05:19:02.535Z,15.53
2018-12-31T05:21:31.034Z,17.57
2018-12-31T05:23:59.569Z,12.67
2018-12-31T05:26:28.110Z,16.23
2018-12-31T05:28:56.651Z,14.60
2018-12-31T05:31:25.100Z,16.97
2018-12-31T05:33:53.737Z,13.10
2018-12-31T05:36:22.395Z,18.63
2018-12-31T05:38:50.842Z,18.90
2018-12-31T05:41:19.402Z,29.67
2018-12-31T05:43:48.010Z,26.03
2018-12-31T05:46:16.476Z,23.90
2018-12-31T05:48:44.985Z,23.10
2018-12-31T05:51:13.611Z,18.90
2018-12-31T05:53:42.133Z,29.73
2018-12-31T05:56:10.631Z,24.73
2018-12-31T05:58:39.299Z,28.13
2018-12-31T06:01:07.717Z,20.83
2018-12-31T06:03:36.260Z,16.93
2018-12-31T06:06:04.868Z,25.63
2018-12-31T06:08:33.399Z,23.60
2018-12-31T06:11:02.433Z,21.00
2018-12-31T06:13:31.058Z,29.67
2018-12-31T06:15:59.609Z,32.63
2018-12-31T06:18:28.161Z,37.43
2018-12-31T06:20:56.902Z,24.37
2018-12-31T06:23:25.477Z,23.67
2018-12-31T06:25:53.936Z,17.70
2018-12-31T06:28:22.546Z,20.20
2018-12-31T06:30:51.083Z,24.77
2018-12-31T06:33:19.830Z,23.70
2018-12-31T06:35:48.377Z,27.53
2018-12-31T06:38:17.094Z,18.57
2018-12-31T06:40:45.750Z,19.03
2018-12-31T06:43:14.315Z,20.97
2018-12-31T06:45:42.796Z,14.40
2018-12-31T06:48:11.422Z,16.57
2018-12-31T06:50:39.957Z,16.40
2018-12-31T06:53:08.391Z,13.47
2018-12-31T06:55:36.845Z,17.33
2018-12-31T06:58:05.485Z,18.17
2018-12-31T07:00:34.039Z,18.57
2018-12-31T07:03:02.488Z,11.37
2018-12-31T07:05:31.049Z,15.70
2018-12-31T07:07:59.579Z,17.53
2018-12-31T07:10:28.040Z,15.60
2018-12-31T07:12:56.547Z,14.37
2018-12-31T07:15:25.120Z,15.57
2018-12-31T07:17:53.660Z,21.33
2018-12-31T07:20:22.220Z,22.97
2018-12-31T07:22:50.682Z,20.30
2018-12-31T07:25:19.116Z,16.57
2018-12-31T07:27:47.718Z,13.77
2018-12-31T07:30:16.327Z,17.67
2018-12-31T07:32:44.775Z,13.67
2018-12-31T07:35:13.252Z,16.10
2018-12-31T07:37:41.743Z,16.07
2018-12-31T07:40:10.241Z,14.50
2018-12-31T07:42:38.703Z,12.63
2018-12-31T07:45:07.167Z,18.70
2018-12-31T07:47:35.575Z,11.93
2018-12-31T07:50:04.926Z,15.33
2018-12-31T07:52:33.420Z,18.13
2018-12-31T07:55:01.956Z,16.10
2018-12-31T07:57:30.467Z,16.40
2018-12-31T07:59:58.944Z,14.93
2018-12-31T08:02:27.399Z,16.10
2018-12-31T08:04:55.871Z,15.83
2018-12-31T08:07:24.426Z,12.07
2018-12-31T08:09:52.991Z,14.50
2018-12-31T08:12:21.474Z,12.83
2018-12-31T08:14:49.983Z,12.03
2018-12-31T08:17:18.481Z,14.93
2018-12-31T08:19:47.104Z,12.13
2018-12-31T08:22:15.574Z,16.40
2018-12-31T08:24:44.116Z,17.77
2018-12-31T08:27:12.662Z,18.50
2018-12-31T08:29:41.105Z,20.23
2018-12-31T08:32:09.616Z,21.27
2018-12-31T08:34:38.207Z,18.43
2018-12-31T08:37:06.664Z,23.97
2018-12-31T08:39:35.108Z,18.83
2018-12-31T08:42:03.659Z,17.10
2018-12-31T08:44:32.081Z,22.97
2018-12-31T08:47:00.531Z,23.17
2018-12-31T08:49:29.068Z,18.43
2018-12-31T08:51:57.487Z,21.20
2018-12-31T08:54:26.132Z,22.70
2018-12-31T08:56:54.588Z,20.40
2018-12-31T08:59:23.231Z,26.00
2018-12-31T09:01:51.754Z,22.80
2018-12-31T09:04:20.265Z,29.97
2018-12-31T09:06:48.781Z,19.37
2018-12-31T09:09:17.230Z,24.23
2018-12-31T09:11:45.992Z,27.10
2018-12-31T09:14:14.454Z,28.37
2018-12-31T09:16:42.955Z,25.90
2018-12-31T09:19:11.538Z,19.37
2018-12-31T09:21:39.975Z,28.07
2018-12-31T09:24:08.481Z,18.63
2018-12-31T09:26:37.023Z,18.80
2018-12-31T09:29:05.622Z,25.10
2018-12-31T09:31:34.401Z,15.90
2018-12-31T09:34:03.260Z,19.00
2018-12-31T09:36:31.862Z,25.57
2018-12-31T09:39:00.412Z,24.70
2018-12-31T09:41:28.908Z,28.80
2018-12-31T09:43:57.386Z,23.27
2018-12-31T09:46:25.815Z,21.70
2018-12-31T09:48:54.378Z,25.57
2018-12-31T09:51:23.004Z,26.47
2018-12-31T09:53:51.559Z,24.53
2018-12-31T09:56:20.053Z,21.93
2018-12-31T09:58:48.752Z,18.73
2018-12-31T10:01:17.251Z,27.47
2018-12-31T10:03:47.609Z,36.90
2018-12-31T10:06:15.946Z,26.17
2018-12-31T10:08:49.210Z,23.07
2018-12-31T10:11:14.704Z,23.43
2018-12-31T10:13:43.230Z,19.93
2018-12-31T10:16:11.685Z,26.53
2018-12-31T10:18:40.255Z,22.57
2018-12-31T10:21:08.793Z,20.77
2018-12-31T10:23:37.316Z,17.30
2018-12-31T10:26:05.835Z,13.60
2018-12-31T10:28:34.252Z,13.07
2018-12-31T10:31:02.870Z,16.33
2018-12-31T10:33:31.419Z,17.90
2018-12-31T10:35:59.935Z,11.63
2018-12-31T10:38:28.357Z,13.33
2018-12-31T10:40:56.946Z,17.27
2018-12-31T10:43:25.479Z,13.43
2018-12-31T10:45:54.109Z,13.83
2018-12-31T10:48:22.649Z,8.97
2018-12-31T10:50:51.220Z,12.47
2018-12-31T10:53:19.699Z,13.03
2018-12-31T10:55:48.553Z,14.37
2018-12-31T10:58:17.214Z,13.00
2018-12-31T11:00:45.705Z,11.53
2018-12-31T11:03:14.226Z,13.70
2018-12-31T11:05:42.701Z,15.77
2018-12-31T11:08:11.174Z,11.33
2018-12-31T11:10:40.899Z,13.93
2018-12-31T11:13:09.578Z,17.27
2018-12-31T11:15:38.043Z,14.40
2018-12-31T11:18:06.549Z,11.90
2018-12-31T11:20:34.979Z,17.60
2018-12-31T11:23:03.514Z,15.30
2018-12-31T11:25:31.991Z,13.40
2018-12-31T11:28:00.587Z,10.53
2018-12-31T11:30:29.052Z,11.90
2018-12-31T11:32:57.537Z,12.27
2018-12-31T11:35:26.105Z,9.90
2018-12-31T11:37:54.609Z,12.80
2018-12-31T11:40:23.266Z,15.80
2018-12-31T11:42:52.286Z,16.40
2018-12-31T11:45:20.777Z,13.00
2018-12-31T11:47:49.448Z,12.93
2018-12-31T11:50:17.986Z,15.03
2018-12-31T11:52:46.607Z,16.93
2018-12-31T11:55:15.097Z,11.90
2018-12-31T11:57:43.710Z,24.27
2018-12-31T12:00:12.104Z,20.40
2018-12-31T12:02:40.838Z,13.80
2018-12-31T12:05:09.241Z,16.93
2018-12-31T12:07:38.097Z,13.53
2018-12-31T12:10:06.629Z,15.93
2018-12-31T12:12:35.123Z,13.80
2018-12-31T12:15:03.681Z,11.53
2018-12-31T12:17:32.295Z,12.57
2018-12-31T12:20:00.849Z,15.83
2018-12-31T12:22:29.587Z,21.27
2018-12-31T12:24:58.123Z,23.10
2018-12-31T12:27:26.630Z,18.53
2018-12-31T12:29:55.073Z,22.33
2018-12-31T12:32:23.613Z,23.70
2018-12-31T12:34:52.379Z,21.80
2018-12-31T12:37:20.912Z,21.50
2018-12-31T12:39:49.415Z,19.63
2018-12-31T12:42:18.024Z,31.80
2018-12-31T12:44:46.764Z,18.73
2018-12-31T12:47:15.294Z,16.27
2018-12-31T12:49:43.740Z,15.97
2018-12-31T12:52:12.234Z,20.63
2018-12-31T12:54:40.933Z,15.13
2018-12-31T12:57:09.328Z,28.70
2018-12-31T12:59:37.916Z,21.17
2018-12-31T13:02:06.511Z,13.77
2018-12-31T13:04:35.107Z,28.40
2018-12-31T13:07:03.620Z,26.33
2018-12-31T13:09:33.144Z,13.87
2018-12-31T13:12:01.707Z,19.37
2018-12-31T13:14:30.179Z,15.40
2018-12-31T13:16:58.685Z,14.80
2018-12-31T13:19:27.170Z,18.53
2018-12-31T13:21:55.640Z,17.60
2018-12-31T13:24:24.296Z,15.40
2018-12-31T13:26:52.826Z,14.43
2018-12-31T13:29:21.348Z,16.10
2018-12-31T13:31:49.958Z,15.17
2018-12-31T13:34:18.426Z,10.90
2018-12-31T13:36:46.831Z,15.30
2018-12-31T13:39:15.639Z,12.30
2018-12-31T13:41:44.112Z,18.53
2018-12-31T13:44:12.667Z,15.07
2018-12-31T13:46:41.232Z,17.37
2018-12-31T13:49:11.616Z,14.30
2018-12-31T13:51:39.993Z,13.47
2018-12-31T13:54:08.666Z,19.37
2018-12-31T13:56:37.112Z,17.83
2018-12-31T13:59:05.537Z,16.73
2018-12-31T14:01:34.122Z,21.07
2018-12-31T14:04:03.060Z,20.80
2018-12-31T14:06:31.593Z,17.40
2018-12-31T14:09:00.114Z,15.00
2018-12-31T14:11:28.690Z,12.57
2018-12-31T14:13:57.059Z,15.33
2018-12-31T14:16:25.942Z,17.27
2018-12-31T14:18:54.490Z,17.77
2018-12-31T14:21:23.163Z,15.60
2018-12-31T14:23:51.750Z,17.37
2018-12-31T14:26:20.246Z,10.97
2018-12-31T14:28:49.143Z,21.63
2018-12-31T14:31:17.631Z,19.07
2018-12-31T14:33:46.148Z,21.10
2018-12-31T14:36:14.666Z,18.53
2018-12-31T14:38:43.254Z,19.53
2018-12-31T14:41:11.988Z,25.13
2018-12-31T14:43:40.502Z,28.37
2018-12-31T14:46:09.057Z,30.43
2018-12-31T14:48:37.690Z,44.53
2018-12-31T14:51:06.186Z,41.10
2018-12-31T14:53:34.814Z,29.90
2018-12-31T14:56:03.359Z,25.17
2018-12-31T14:58:31.812Z,28.07
2018-12-31T15:01:00.406Z,35.67
2018-12-31T15:03:28.929Z,42.33
2018-12-31T15:05:57.432Z,28.17
2018-12-31T15:08:26.030Z,18.57
2018-12-31T15:10:54.886Z,18.83
2018-12-31T15:13:24.363Z,28.77
2018-12-31T15:15:53.540Z,30.73
2018-12-31T15:18:22.576Z,36.33
2018-12-31T15:20:51.581Z,31.27
2018-12-31T15:23:20.192Z,31.53
2018-12-31T15:25:48.644Z,26.37
2018-12-31T15:28:17.215Z,19.97
2018-12-31T15:30:45.795Z,24.40
2018-12-31T15:33:14.253Z,23.67
2018-12-31T15:35:42.652Z,38.27
2018-12-31T15:38:11.311Z,29.07
2018-12-31T15:40:39.801Z,22.93
2018-12-31T15:43:08.402Z,20.50
2018-12-31T15:45:37.381Z,20.03
2018-12-31T15:48:05.949Z,19.77
2018-12-31T15:50:34.436Z,23.60
2018-12-31T15:53:03.057Z,21.37
2018-12-31T15:55:31.653Z,20.03
2018-12-31T15:58:00.619Z,20.47
2018-12-31T16:00:29.132Z,25.67
2018-12-31T16:02:57.691Z,23.70
2018-12-31T16:05:26.262Z,22.53
2018-12-31T16:07:54.927Z,19.23
2018-12-31T16:10:23.373Z,21.00
2018-12-31T16:12:51.858Z,17.30
2018-12-31T16:15:20.312Z,18.60
2018-12-31T16:17:48.967Z,21.27
2018-12-31T16:20:17.506Z,22.50
2018-12-31T16:22:46.483Z,26.33
2018-12-31T16:25:15.026Z,22.10
2018-12-31T16:27:43.658Z,21.03
2018-12-31T16:30:12.182Z,23.00
2018-12-31T16:32:40.661Z,31.20
2018-12-31T16:35:09.088Z,66.03
2018-12-31T16:37:37.979Z,131.83
2018-12-31T16:40:06.907Z,109.40
2018-12-31T16:42:35.512Z,229.80
2018-12-31T16:45:04.817Z,361.23
2018-12-31T16:47:33.402Z,435.83
2018-12-31T16:50:02.043Z,392.07
2018-12-31T16:52:30.558Z,221.50
2018-12-31T16:54:59.205Z,272.93
2018-12-31T16:57:27.802Z,291.43
2018-12-31T16:59:56.286Z,285.00
2018-12-31T17:02:25.203Z,239.87
2018-12-31T17:04:53.817Z,207.80
2018-12-31T17:07:28.258Z,194.87
2018-12-31T17:09:52.933Z,172.53
2018-12-31T17:12:21.545Z,145.80
2018-12-31T17:14:50.252Z,125.90
2018-12-31T17:17:18.763Z,129.43
2018-12-31T17:19:47.503Z,126.77
2018-12-31T17:22:16.057Z,112.00
2018-12-31T17:24:44.654Z,76.63
2018-12-31T17:27:13.217Z,159.37
2018-12-31T17:29:41.896Z,379.17
2018-12-31T17:32:10.433Z,247.77
2018-12-31T17:34:39.025Z,149.10
2018-12-31T17:37:07.808Z,169.50
2018-12-31T17:39:36.268Z,197.27
2018-12-31T17:42:09.705Z,163.70
2018-12-31T17:44:35.323Z,196.33
2018-12-31T17:47:04.099Z,149.00
2018-12-31T17:49:32.694Z,75.57
2018-12-31T17:52:01.175Z,56.03
2018-12-31T17:54:30.306Z,63.70
2018-12-31T17:56:58.881Z,65.10
2018-12-31T17:59:27.499Z,80.20
2018-12-31T18:01:56.119Z,63.53
2018-12-31T18:04:24.673Z,72.87
2018-12-31T18:06:53.211Z,98.50
2018-12-31T18:09:21.781Z,90.03
2018-12-31T18:11:50.298Z,70.53
2018-12-31T18:14:18.932Z,88.90
2018-12-31T18:16:47.555Z,110.20
2018-12-31T18:19:16.153Z,113.37
2018-12-31T18:21:44.680Z,113.27
2018-12-31T18:24:13.209Z,101.33
2018-12-31T18:26:41.690Z,86.60
2018-12-31T18:29:10.343Z,85.90
2018-12-31T18:31:38.810Z,89.97
2018-12-31T18:34:07.326Z,92.93
2018-12-31T18:36:35.879Z,118.83
2018-12-31T18:39:06.469Z,107.17
2018-12-31T18:41:34.926Z,105.90
2018-12-31T18:44:03.473Z,120.83
2018-12-31T18:46:32.085Z,167.63
2018-12-31T18:49:00.543Z,169.50
2018-12-31T18:51:29.227Z,195.23
2018-12-31T18:53:57.707Z,179.07
2018-12-31T18:56:26.155Z,287.47
2018-12-31T18:58:54.933Z,298.63
2018-12-31T19:01:23.501Z,220.20
2018-12-31T19:03:52.016Z,182.00
2018-12-31T19:06:20.632Z,324.70
2018-12-31T19:08:49.149Z,215.33
2018-12-31T19:11:17.610Z,508.23
2018-12-31T19:13:46.140Z,243.77
2018-12-31T19:16:14.603Z,168.43
2018-12-31T19:18:43.080Z,202.80
2018-12-31T19:21:13.277Z,229.20
2018-12-31T19:23:41.717Z,191.00
2018-12-31T19:26:10.231Z,97.63
2018-12-31T19:28:38.865Z,273.00
2018-12-31T19:31:07.270Z,251.63
2018-12-31T19:33:35.906Z,199.23
2018-12-31T19:36:04.594Z,253.47
2018-12-31T19:38:33.522Z,260.60
2018-12-31T19:41:02.065Z,257.20
2018-12-31T19:43:30.648Z,261.57
2018-12-31T19:45:59.174Z,244.10
2018-12-31T19:48:27.740Z,213.63
2018-12-31T19:50:56.269Z,200.27
2018-12-31T19:53:24.738Z,238.70
2018-12-31T19:55:53.382Z,194.60
2018-12-31T19:58:21.891Z,214.63
2018-12-31T20:00:50.520Z,224.10
2018-12-31T20:03:19.068Z,179.90
2018-12-31T20:05:47.664Z,153.90
2018-12-31T20:08:16.310Z,157.67
2018-12-31T20:10:44.927Z,176.60
2018-12-31T20:13:13.506Z,161.63
2018-12-31T20:15:48.559Z,133.90
2018-12-31T20:18:12.333Z,138.27
2018-12-31T20:20:40.931Z,128.40
2018-12-31T20:23:09.442Z,125.57
2018-12-31T20:25:37.983Z,157.47
2018-12-31T20:28:06.682Z,142.20
2018-12-31T20:30:35.282Z,139.87
2018-12-31T20:33:03.785Z,113.57
2018-12-31T20:35:32.384Z,116.50
2018-12-31T20:38:00.925Z,118.93
2018-12-31T20:40:29.545Z,140.40
2018-12-31T20:42:58.091Z,121.13
2018-12-31T20:45:26.785Z,111.00
2018-12-31T20:48:01.799Z,120.10
2018-12-31T20:50:25.652Z,106.50
2018-12-31T20:52:54.202Z,101.80
2018-12-31T20:55:22.789Z,112.70
2018-12-31T20:57:51.439Z,133.10
2018-12-31T21:00:20.217Z,134.53
2018-12-31T21:02:48.701Z,121.97
2018-12-31T21:05:17.316Z,122.93
2018-12-31T21:07:45.914Z,125.87
2018-12-31T21:10:14.459Z,113.90
2018-12-31T21:12:43.200Z,130.60
2018-12-31T21:15:11.785Z,114.80
2018-12-31T21:17:40.393Z,96.53
2018-12-31T21:20:09.272Z,90.07
2018-12-31T21:22:37.774Z,78.67
2018-12-31T21:25:06.387Z,93.50
2018-12-31T21:27:34.993Z,94.00
2018-12-31T21:30:04.032Z,84.20
2018-12-31T21:32:33.686Z,82.37
2018-12-31T21:35:02.232Z,84.87
2018-12-31T21:37:30.678Z,84.00
2018-12-31T21:39:59.452Z,78.90
2018-12-31T21:42:27.898Z,84.70
2018-12-31T21:44:56.441Z,85.67
2018-12-31T21:47:25.046Z,97.23
2018-12-31T21:49:53.687Z,93.63
2018-12-31T21:52:22.211Z,110.00
2018-12-31T21:54:50.796Z,108.67
2018-12-31T21:57:19.260Z,94.23
2018-12-31T21:59:47.873Z,87.63
2018-12-31T22:02:16.365Z,111.50
2018-12-31T22:04:45.047Z,153.03
2018-12-31T22:07:13.711Z,140.47
2018-12-31T22:09:42.403Z,110.83
2018-12-31T22:12:10.964Z,82.83
2018-12-31T22:14:39.432Z,70.83
2018-12-31T22:17:08.010Z,94.57
2018-12-31T22:19:36.901Z,80.70
2018-12-31T22:22:05.449Z,83.80
2018-12-31T22:24:33.929Z,90.10
2018-12-31T22:27:02.685Z,86.13
2018-12-31T22:29:31.423Z,106.87
2018-12-31T22:31:59.952Z,85.27
2018-12-31T22:34:28.436Z,72.63
2018-12-31T22:36:56.959Z,63.73
2018-12-31T22:39:25.502Z,68.33
2018-12-31T22:41:54.003Z,69.50
2018-12-31T22:44:22.602Z,110.20
2018-12-31T22:46:51.739Z,104.83
2018-12-31T22:49:20.324Z,73.17
2018-12-31T22:51:48.829Z,81.17
2018-12-31T22:54:17.503Z,76.23
2018-12-31T22:56:46.138Z,82.37
2018-12-31T22:59:15.050Z,102.93
2018-12-31T23:01:43.770Z,101.90
2018-12-31T23:04:12.406Z,163.97
2018-12-31T23:06:41.039Z,226.53
2018-12-31T23:09:11.030Z,338.50
2018-12-31T23:11:39.809Z,231.70
2018-12-31T23:14:08.432Z,221.67
2018-12-31T23:16:37.034Z,188.83
2018-12-31T23:19:05.580Z,193.87
2018-12-31T23:21:34.004Z,196.37
2018-12-31T23:24:02.561Z,158.37
2018-12-31T23:26:31.152Z,136.47
2018-12-31T23:28:59.690Z,113.00
2018-12-31T23:31:28.253Z,101.27
2018-12-31T23:33:57.012Z,85.13
2018-12-31T23:36:25.469Z,96.27
2018-12-31T23:38:54.224Z,98.03
2018-12-31T23:41:22.729Z,113.77
2018-12-31T23:43:51.244Z,93.40
2018-12-31T23:46:21.404Z,87.63
2018-12-31T23:48:50.206Z,95.83
2018-12-31T23:51:19.230Z,94.07
2018-12-31T23:53:47.879Z,92.83
2018-12-31T23:56:16.440Z,93.53
2018-12-31T23:58:44.924Z,86.50
